createdAt,value
2018-08-24T00:00:02.300Z,4.03
2018-08-24T00:02:30.524Z,3.90
2018-08-24T00:04:58.703Z,3.83
2018-08-24T00:07:26.910Z,3.73
2018-08-24T00:09:55.093Z,3.60
2018-08-24T00:12:23.273Z,3.37
2018-08-24T00:14:51.668Z,4.00
2018-08-24T00:17:25.265Z,3.70
2018-08-24T00:19:53.440Z,3.40
2018-08-24T00:22:21.697Z,4.00
2018-08-24T00:24:49.866Z,4.33
2018-08-24T00:27:18.048Z,3.73
2018-08-24T00:29:46.233Z,3.20
2018-08-24T00:32:14.429Z,3.70
2018-08-24T00:34:42.625Z,3.20
2018-08-24T00:37:11.062Z,3.10
2018-08-24T00:39:42.341Z,3.10
2018-08-24T00:42:11.187Z,3.30
2018-08-24T00:44:39.926Z,3.10
2018-08-24T00:47:08.098Z,3.37
2018-08-24T00:49:36.297Z,2.90
2018-08-24T00:52:04.473Z,2.73
2018-08-24T00:54:32.708Z,2.90
2018-08-24T00:57:00.853Z,3.67
2018-08-24T00:59:29.406Z,3.00
2018-08-24T01:01:57.585Z,2.53
2018-08-24T01:04:31.121Z,3.17
2018-08-24T01:06:59.318Z,3.00
2018-08-24T01:09:27.526Z,3.23
2018-08-24T01:12:00.949Z,2.83
2018-08-24T01:14:29.153Z,3.10
2018-08-24T01:19:04.089Z,2.83
2018-08-24T01:21:32.345Z,3.17
2018-08-24T01:24:00.541Z,2.97
2018-08-24T01:26:28.744Z,3.13
2018-08-24T01:28:56.917Z,2.80
2018-08-24T01:31:25.109Z,2.70
2018-08-24T01:33:53.296Z,3.57
2018-08-24T01:36:21.478Z,3.00
2018-08-24T01:38:49.863Z,3.07
2018-08-24T01:41:18.044Z,3.40
2018-08-24T01:43:46.529Z,3.17
2018-08-24T01:46:15.669Z,3.00
2018-08-24T01:48:43.844Z,3.10
2018-08-24T01:51:12.069Z,3.47
2018-08-24T01:53:40.253Z,3.30
2018-08-24T01:56:08.429Z,3.60
2018-08-24T01:58:36.656Z,3.53
2018-08-24T02:01:04.930Z,3.37
2018-08-24T02:03:33.111Z,3.90
2018-08-24T02:06:05.777Z,3.20
2018-08-24T02:08:34.794Z,3.10
2018-08-24T02:11:07.401Z,3.50
2018-08-24T02:13:41.095Z,3.87
2018-08-24T02:16:09.281Z,3.70
2018-08-24T02:18:42.957Z,3.70
2018-08-24T02:21:16.574Z,4.00
2018-08-24T02:23:44.773Z,3.97
2018-08-24T02:26:13.225Z,3.67
2018-08-24T02:28:41.409Z,3.67
2018-08-24T02:31:09.632Z,4.30
2018-08-24T02:33:39.460Z,4.57
2018-08-24T02:36:08.829Z,4.70
2018-08-24T02:38:37.454Z,4.40
2018-08-24T02:41:05.654Z,4.60
2018-08-24T02:43:33.829Z,4.33
2018-08-24T02:46:02.024Z,4.33
2018-08-24T02:48:30.793Z,4.77
2018-08-24T02:50:58.986Z,5.50
2018-08-24T02:53:27.217Z,5.20
2018-08-24T02:55:55.412Z,5.80
2018-08-24T02:58:23.601Z,10.37
2018-08-24T03:00:51.774Z,5.03
2018-08-24T03:03:19.996Z,4.90
2018-08-24T03:05:48.211Z,5.33
2018-08-24T03:08:16.389Z,5.53
2018-08-24T03:10:44.673Z,5.40
2018-08-24T03:13:12.873Z,5.20
2018-08-24T03:15:41.061Z,5.60
2018-08-24T03:18:09.257Z,5.00
2018-08-24T03:20:37.434Z,6.50
2018-08-24T03:23:05.861Z,5.53
2018-08-24T03:25:34.081Z,5.80
2018-08-24T03:28:02.277Z,6.03
2018-08-24T03:30:30.469Z,5.47
2018-08-24T03:32:58.845Z,5.97
2018-08-24T03:35:27.037Z,5.80
2018-08-24T03:37:55.245Z,6.20
2018-08-24T03:40:23.467Z,6.10
2018-08-24T03:42:51.898Z,6.10
2018-08-24T03:45:20.089Z,5.90
2018-08-24T03:47:48.271Z,5.90
2018-08-24T03:50:16.472Z,6.00
2018-08-24T03:52:44.674Z,6.70
2018-08-24T03:55:13.029Z,6.27
2018-08-24T03:57:41.400Z,5.73
2018-08-24T04:00:13.965Z,6.23
2018-08-24T04:02:42.461Z,7.37
2018-08-24T04:05:10.646Z,7.00
2018-08-24T04:07:38.819Z,6.23
2018-08-24T04:10:07.321Z,6.00
2018-08-24T04:12:35.498Z,6.63
2018-08-24T04:15:03.713Z,6.30
2018-08-24T04:17:37.365Z,7.07
2018-08-24T04:20:05.645Z,6.90
2018-08-24T04:22:33.827Z,6.20
2018-08-24T04:25:05.297Z,7.00
2018-08-24T04:27:33.493Z,6.83
2018-08-24T04:30:01.679Z,7.23
2018-08-24T04:32:29.865Z,6.67
2018-08-24T04:34:58.080Z,6.50
2018-08-24T04:37:26.249Z,7.37
2018-08-24T04:39:54.436Z,6.43
2018-08-24T04:42:22.675Z,6.17
2018-08-24T04:44:50.885Z,6.93
2018-08-24T04:47:19.065Z,6.40
2018-08-24T04:49:47.285Z,6.63
2018-08-24T04:52:15.562Z,6.43
2018-08-24T04:54:43.815Z,5.67
2018-08-24T04:57:11.990Z,6.50
2018-08-24T04:59:40.393Z,6.97
2018-08-24T05:02:08.589Z,6.00
2018-08-24T05:04:36.805Z,6.67
2018-08-24T05:07:05.673Z,6.30
2018-08-24T05:09:33.877Z,5.87
2018-08-24T05:12:02.061Z,6.60
2018-08-24T05:14:30.253Z,6.07
2018-08-24T05:16:58.529Z,6.03
2018-08-24T05:19:26.699Z,5.53
2018-08-24T05:21:55.159Z,5.70
2018-08-24T05:24:23.428Z,5.67
2018-08-24T05:26:51.577Z,6.00
2018-08-24T05:29:19.746Z,6.23
2018-08-24T05:31:47.913Z,5.80
2018-08-24T05:34:16.129Z,5.50
2018-08-24T05:36:44.401Z,5.53
2018-08-24T05:39:12.593Z,5.90
2018-08-24T05:41:40.781Z,5.47
2018-08-24T05:44:09.066Z,5.53
2018-08-24T05:46:37.240Z,5.87
2018-08-24T05:49:05.435Z,5.40
2018-08-24T05:51:33.635Z,5.50
2018-08-24T05:54:01.829Z,5.13
2018-08-24T05:56:30.237Z,5.20
2018-08-24T05:58:58.421Z,4.73
2018-08-24T06:01:26.610Z,5.40
2018-08-24T06:03:54.811Z,4.50
2018-08-24T06:06:23.272Z,5.40
2018-08-24T06:08:56.839Z,5.30
2018-08-24T06:11:25.019Z,5.30
2018-08-24T06:13:53.197Z,5.30
2018-08-24T06:16:21.536Z,5.70
2018-08-24T06:18:49.740Z,4.63
2018-08-24T06:21:17.917Z,4.90
2018-08-24T06:23:47.116Z,5.10
2018-08-24T06:26:15.496Z,4.80
2018-08-24T06:28:43.897Z,5.03
2018-08-24T06:31:12.145Z,4.70
2018-08-24T06:33:40.354Z,4.87
2018-08-24T06:36:08.533Z,3.87
2018-08-24T06:38:36.805Z,4.40
2018-08-24T06:41:05.297Z,4.27
2018-08-24T06:43:33.466Z,4.83
2018-08-24T06:46:01.907Z,4.53
2018-08-24T06:48:30.105Z,4.60
2018-08-24T06:50:59.256Z,4.43
2018-08-24T06:53:28.118Z,4.17
2018-08-24T06:55:56.257Z,4.00
2018-08-24T06:58:24.523Z,4.20
2018-08-24T07:00:52.796Z,3.67
2018-08-24T07:03:21.182Z,4.17
2018-08-24T07:05:49.441Z,4.33
2018-08-24T07:08:17.655Z,4.50
2018-08-24T07:10:45.847Z,4.93
2018-08-24T07:13:14.291Z,4.77
2018-08-24T07:15:42.500Z,3.97
2018-08-24T07:18:10.749Z,4.20
2018-08-24T07:20:39.009Z,4.80
2018-08-24T07:23:07.196Z,4.27
2018-08-24T07:25:35.381Z,4.30
2018-08-24T07:28:03.577Z,4.40
2018-08-24T07:30:31.810Z,4.13
2018-08-24T07:33:00.027Z,4.60
2018-08-24T07:35:28.290Z,7.33
2018-08-24T07:37:56.532Z,4.90
2018-08-24T07:40:24.877Z,9.03
2018-08-24T07:42:53.084Z,4.37
2018-08-24T07:45:21.313Z,4.43
2018-08-24T07:47:49.514Z,3.73
2018-08-24T07:50:17.713Z,3.97
2018-08-24T07:52:45.910Z,3.73
2018-08-24T07:55:14.127Z,4.83
2018-08-24T07:57:42.452Z,3.50
2018-08-24T08:00:10.818Z,4.20
2018-08-24T08:02:46.010Z,3.87
2018-08-24T08:05:14.949Z,7.63
2018-08-24T08:07:43.149Z,15.50
2018-08-24T08:10:11.340Z,4.23
2018-08-24T08:12:39.644Z,4.50
2018-08-24T08:15:08.837Z,4.00
2018-08-24T08:17:38.054Z,4.77
2018-08-24T08:20:06.689Z,4.57
2018-08-24T08:22:34.893Z,4.03
2018-08-24T08:25:03.125Z,3.57
2018-08-24T08:27:31.809Z,4.23
2018-08-24T08:30:02.166Z,7.13
2018-08-24T08:32:31.105Z,4.87
2018-08-24T08:34:59.398Z,4.17
2018-08-24T08:37:27.659Z,4.60
2018-08-24T08:40:01.428Z,5.50
2018-08-24T08:42:30.017Z,4.30
2018-08-24T08:44:58.631Z,4.90
2018-08-24T08:47:26.818Z,3.80
2018-08-24T08:49:56.076Z,3.80
2018-08-24T08:52:24.309Z,4.37
2018-08-24T08:54:52.602Z,4.30
2018-08-24T08:57:21.398Z,4.70
2018-08-24T08:59:49.672Z,4.00
2018-08-24T09:02:17.886Z,3.90
2018-08-24T09:04:46.077Z,5.07
2018-08-24T09:07:14.293Z,4.47
2018-08-24T09:09:42.525Z,4.97
2018-08-24T09:12:10.946Z,4.80
2018-08-24T09:14:39.532Z,4.10
2018-08-24T09:17:13.033Z,4.27
2018-08-24T09:19:46.891Z,4.80
2018-08-24T09:22:20.313Z,4.10
2018-08-24T09:24:53.817Z,4.50
2018-08-24T09:27:27.325Z,4.30
2018-08-24T09:29:57.998Z,4.40
2018-08-24T09:32:26.273Z,4.60
2018-08-24T09:34:54.415Z,5.90
2018-08-24T09:37:28.002Z,4.73
2018-08-24T09:39:56.381Z,7.07
2018-08-24T09:42:24.750Z,4.30
2018-08-24T09:44:52.993Z,4.03
2018-08-24T09:47:26.500Z,4.40
2018-08-24T09:49:54.716Z,4.53
2018-08-24T09:52:27.150Z,4.90
2018-08-24T09:54:56.113Z,4.90
2018-08-24T09:57:24.456Z,5.30
2018-08-24T09:59:53.315Z,6.20
2018-08-24T10:02:24.295Z,5.10
2018-08-24T10:04:57.924Z,5.57
2018-08-24T10:07:31.451Z,6.53
2018-08-24T10:09:59.830Z,6.83
2018-08-24T10:12:32.298Z,6.83
2018-08-24T10:15:00.866Z,7.00
2018-08-24T10:17:29.374Z,6.43
2018-08-24T10:19:57.801Z,7.20
2018-08-24T10:22:26.198Z,6.20
2018-08-24T10:24:55.018Z,7.13
2018-08-24T10:27:23.500Z,6.90
2018-08-24T10:29:51.798Z,7.40
2018-08-24T10:32:19.952Z,7.97
2018-08-24T10:34:48.232Z,7.33
2018-08-24T10:37:16.429Z,6.63
2018-08-24T10:39:44.780Z,7.03
2018-08-24T10:42:13.185Z,6.50
2018-08-24T10:44:41.435Z,6.30
2018-08-24T10:47:09.665Z,6.60
2018-08-24T10:49:37.848Z,6.67
2018-08-24T10:52:06.119Z,6.10
2018-08-24T10:54:34.331Z,6.00
2018-08-24T10:57:02.760Z,5.60
2018-08-24T10:59:30.971Z,6.27
2018-08-24T11:01:59.263Z,5.43
2018-08-24T11:04:27.749Z,6.77
2018-08-24T11:06:56.026Z,7.27
2018-08-24T11:09:24.290Z,6.97
2018-08-24T11:11:52.510Z,6.63
2018-08-24T11:14:20.863Z,6.77
2018-08-24T11:16:49.233Z,6.73
2018-08-24T11:19:17.429Z,6.80
2018-08-24T11:21:45.665Z,6.57
2018-08-24T11:24:13.885Z,7.23
2018-08-24T11:26:42.186Z,7.53
2018-08-24T11:29:10.369Z,6.77
2018-08-24T11:31:38.601Z,7.30
2018-08-24T11:34:06.980Z,6.13
2018-08-24T11:36:35.091Z,6.43
2018-08-24T11:39:04.453Z,7.27
2018-08-24T11:41:32.693Z,6.73
2018-08-24T11:44:00.929Z,5.77
2018-08-24T11:46:29.336Z,6.20
2018-08-24T11:48:57.558Z,7.20
2018-08-24T11:51:25.925Z,7.00
2018-08-24T11:53:54.182Z,6.03
2018-08-24T11:56:22.340Z,5.90
2018-08-24T11:58:50.570Z,6.93
2018-08-24T12:01:18.826Z,6.30
2018-08-24T12:03:47.129Z,7.90
2018-08-24T12:06:15.333Z,8.30
2018-08-24T12:08:43.580Z,6.70
2018-08-24T12:11:12.058Z,6.80
2018-08-24T12:13:40.308Z,7.23
2018-08-24T12:16:08.519Z,7.23
2018-08-24T12:18:36.778Z,7.33
2018-08-24T12:21:05.029Z,5.70
2018-08-24T12:23:33.216Z,5.90
2018-08-24T12:26:01.423Z,6.27
2018-08-24T12:28:29.652Z,5.30
2018-08-24T12:30:57.875Z,4.87
2018-08-24T12:33:26.646Z,4.50
2018-08-24T12:35:54.821Z,5.93
2018-08-24T12:38:23.070Z,5.60
2018-08-24T12:40:51.529Z,5.87
2018-08-24T12:43:19.771Z,5.50
2018-08-24T12:45:47.974Z,5.70
2018-08-24T12:48:16.213Z,5.60
2018-08-24T12:50:45.339Z,6.60
2018-08-24T12:53:13.552Z,6.37
2018-08-24T12:55:42.102Z,6.43
2018-08-24T12:58:10.325Z,6.00
2018-08-24T13:00:38.590Z,6.50
2018-08-24T13:03:06.789Z,6.23
2018-08-24T13:05:35.005Z,6.63
2018-08-24T13:08:03.390Z,6.60
2018-08-24T13:10:31.605Z,7.20
2018-08-24T13:12:59.808Z,7.60
2018-08-24T13:15:28.226Z,8.50
2018-08-24T13:17:56.446Z,7.13
2018-08-24T13:20:24.685Z,7.03
2018-08-24T13:22:52.905Z,7.30
2018-08-24T13:25:21.458Z,7.10
2018-08-24T13:27:49.666Z,7.63
2018-08-24T13:30:17.905Z,7.60
2018-08-24T13:32:46.162Z,7.53
2018-08-24T13:35:14.385Z,7.37
2018-08-24T13:37:42.594Z,7.70
2018-08-24T13:40:10.918Z,7.10
2018-08-24T13:42:39.113Z,6.77
2018-08-24T13:45:07.597Z,7.13
2018-08-24T13:47:36.013Z,6.73
2018-08-24T13:50:04.732Z,7.53
2018-08-24T13:52:32.922Z,7.57
2018-08-24T13:55:01.194Z,6.93
2018-08-24T13:57:29.461Z,5.80
2018-08-24T13:59:57.724Z,6.83
2018-08-24T14:02:26.023Z,6.00
2018-08-24T14:04:54.236Z,6.20
2018-08-24T14:07:22.467Z,6.93
2018-08-24T14:09:50.665Z,7.83
2018-08-24T14:12:18.922Z,7.30
2018-08-24T14:14:47.290Z,6.63
2018-08-24T14:17:15.485Z,7.40
2018-08-24T14:19:44.539Z,7.27
2018-08-24T14:22:12.741Z,7.97
2018-08-24T14:24:41.755Z,7.93
2018-08-24T14:27:09.953Z,6.33
2018-08-24T14:29:38.177Z,6.97
2018-08-24T14:32:06.756Z,6.50
2018-08-24T14:34:34.926Z,7.50
2018-08-24T14:37:03.129Z,7.23
2018-08-24T14:39:31.325Z,7.10
2018-08-24T14:41:59.573Z,9.60
2018-08-24T14:44:27.785Z,8.37
2018-08-24T14:46:56.326Z,8.07
2018-08-24T14:49:24.513Z,8.00
2018-08-24T14:51:52.763Z,9.90
2018-08-24T14:54:20.957Z,10.37
2018-08-24T14:56:49.169Z,10.67
2018-08-24T14:59:17.421Z,12.70
2018-08-24T15:01:45.637Z,16.20
2018-08-24T15:04:13.853Z,14.00
2018-08-24T15:06:42.166Z,16.50
2018-08-24T15:09:11.837Z,16.97
2018-08-24T15:11:40.489Z,18.83
2018-08-24T15:14:09.105Z,17.27
2018-08-24T15:16:37.378Z,18.83
2018-08-24T15:20:35.175Z,16.70
2018-08-24T15:23:03.465Z,18.70
2018-08-24T15:25:31.759Z,16.63
2018-08-24T15:27:59.999Z,18.47
2018-08-24T15:30:28.588Z,17.37
2018-08-24T15:32:56.823Z,16.93
2018-08-24T15:35:25.123Z,16.93
2018-08-24T15:37:53.339Z,16.50
2018-08-24T15:40:21.566Z,19.77
2018-08-24T15:42:50.043Z,18.20
2018-08-24T15:45:18.244Z,18.37
2018-08-24T15:47:46.474Z,20.00
2018-08-24T15:50:14.753Z,18.43
2018-08-24T15:52:43.267Z,18.70
2018-08-24T15:55:11.499Z,16.93
2018-08-24T15:57:39.805Z,16.23
2018-08-24T16:00:08.107Z,13.87
2018-08-24T16:02:36.334Z,11.70
2018-08-24T16:05:04.653Z,11.43
2018-08-24T16:07:37.256Z,13.27
2018-08-24T16:10:06.095Z,11.63
2018-08-24T16:12:34.326Z,10.90
2018-08-24T16:15:02.700Z,10.30
2018-08-24T16:17:30.938Z,9.60
2018-08-24T16:19:59.555Z,11.20
2018-08-24T16:22:27.802Z,10.77
2018-08-24T16:24:56.036Z,11.53
2018-08-24T16:27:25.083Z,10.63
2018-08-24T16:29:55.567Z,9.77
2018-08-24T16:32:23.818Z,11.20
2018-08-24T16:34:52.158Z,10.93
2018-08-24T16:37:20.902Z,9.60
2018-08-24T16:39:49.181Z,11.00
2018-08-24T16:42:17.488Z,9.70
2018-08-24T16:44:46.117Z,11.10
2018-08-24T16:47:14.334Z,11.30
2018-08-24T16:49:42.571Z,11.90
2018-08-24T16:52:10.973Z,11.80
2018-08-24T16:54:39.210Z,14.10
2018-08-24T16:57:07.767Z,12.73
2018-08-24T16:59:36.310Z,11.50
2018-08-24T17:02:04.971Z,12.43
2018-08-24T17:04:33.202Z,11.27
2018-08-24T17:07:01.432Z,9.50
2018-08-24T17:09:29.649Z,9.20
2018-08-24T17:11:58.130Z,10.10
2018-08-24T17:14:26.355Z,9.30
2018-08-24T17:16:54.564Z,8.90
2018-08-24T17:19:22.763Z,10.10
2018-08-24T17:21:51.035Z,9.83
2018-08-24T17:24:19.253Z,9.93
2018-08-24T17:26:47.472Z,8.43
2018-08-24T17:29:15.856Z,9.83
2018-08-24T17:31:44.234Z,10.87
2018-08-24T17:34:12.445Z,9.07
2018-08-24T17:36:40.653Z,9.13
2018-08-24T17:39:10.101Z,10.50
2018-08-24T17:41:38.332Z,10.30
2018-08-24T17:44:06.792Z,10.47
2018-08-24T17:46:35.013Z,10.60
2018-08-24T17:49:03.461Z,9.63
2018-08-24T17:51:31.681Z,8.80
2018-08-24T17:53:59.874Z,7.43
2018-08-24T17:56:28.080Z,8.90
2018-08-24T17:58:56.330Z,8.50
2018-08-24T18:01:24.615Z,9.47
2018-08-24T18:03:52.808Z,8.73
2018-08-24T18:06:21.438Z,10.17
2018-08-24T18:08:49.737Z,7.60
2018-08-24T18:11:17.967Z,8.63
2018-08-24T18:13:46.204Z,7.40
2018-08-24T18:16:14.389Z,8.93
2018-08-24T18:18:42.596Z,8.23
2018-08-24T18:21:10.849Z,9.00
2018-08-24T18:23:39.174Z,10.27
2018-08-24T18:26:08.218Z,10.50
2018-08-24T18:28:36.413Z,8.73
2018-08-24T18:31:04.977Z,9.13
2018-08-24T18:33:33.168Z,9.00
2018-08-24T18:36:01.726Z,9.07
2018-08-24T18:38:29.942Z,9.40
2018-08-24T18:40:58.218Z,10.50
2018-08-24T18:43:26.909Z,9.70
2018-08-24T18:45:55.184Z,8.60
2018-08-24T18:48:23.381Z,11.13
2018-08-24T18:50:51.733Z,11.10
2018-08-24T18:53:21.037Z,10.50
2018-08-24T18:55:49.273Z,10.03
2018-08-24T18:58:17.606Z,11.80
2018-08-24T19:00:46.014Z,11.40
2018-08-24T19:03:14.279Z,11.20
2018-08-24T19:05:42.527Z,10.43
2018-08-24T19:08:11.945Z,10.57
2018-08-24T19:10:45.627Z,10.23
2018-08-24T19:13:15.904Z,11.00
2018-08-24T19:15:45.125Z,10.87
2018-08-24T19:18:18.639Z,10.90
2018-08-24T19:22:16.357Z,11.37
2018-08-24T19:24:44.596Z,11.60
2018-08-24T19:27:12.951Z,12.20
2018-08-24T19:29:46.331Z,11.07
2018-08-24T19:32:14.610Z,11.50
2018-08-24T19:34:42.849Z,11.20
2018-08-24T19:37:11.145Z,11.53
2018-08-24T19:39:39.392Z,11.07
2018-08-24T19:42:12.921Z,10.40
2018-08-24T19:44:41.350Z,11.20
2018-08-24T19:47:13.782Z,11.30
2018-08-24T19:49:42.062Z,9.87
2018-08-24T19:52:11.486Z,11.00
2018-08-24T19:54:39.713Z,11.60
2018-08-24T19:57:13.433Z,10.97
2018-08-24T19:59:41.669Z,10.73
2018-08-24T20:02:09.993Z,10.80
2018-08-24T20:04:38.249Z,11.47
2018-08-24T20:07:11.663Z,10.87
2018-08-24T20:10:15.062Z,10.70
2018-08-24T20:12:43.696Z,10.87
2018-08-24T20:15:17.198Z,11.27
2018-08-24T20:17:45.407Z,11.67
2018-08-24T20:20:13.701Z,11.50
2018-08-24T20:22:41.923Z,12.00
2018-08-24T20:25:10.137Z,11.70
2018-08-24T20:27:38.354Z,10.90
2018-08-24T20:30:07.468Z,12.60
2018-08-24T20:32:35.749Z,11.97
2018-08-24T20:35:04.328Z,11.50
2018-08-24T20:37:32.554Z,12.03
2018-08-24T20:40:00.811Z,12.20
2018-08-24T20:42:29.002Z,13.03
2018-08-24T20:44:57.200Z,12.43
2018-08-24T20:47:25.609Z,12.53
2018-08-24T20:49:53.646Z,12.20
2018-08-24T20:52:22.876Z,13.93
2018-08-24T20:54:51.089Z,12.87
2018-08-24T20:57:19.344Z,13.70
2018-08-24T20:59:47.536Z,12.60
2018-08-24T21:02:15.784Z,13.87
2018-08-24T21:04:43.997Z,13.00
2018-08-24T21:07:12.200Z,12.67
2018-08-24T21:09:40.400Z,13.87
2018-08-24T21:12:08.616Z,13.07
2018-08-24T21:14:36.917Z,12.17
2018-08-24T21:17:05.051Z,14.40
2018-08-24T21:19:33.515Z,13.90
2018-08-24T21:22:01.713Z,12.90
2018-08-24T21:24:29.932Z,14.80
2018-08-24T21:26:58.132Z,14.13
2018-08-24T21:29:26.334Z,13.60
2018-08-24T21:31:54.553Z,14.03
2018-08-24T21:34:22.765Z,13.13
2018-08-24T21:36:50.957Z,14.23
2018-08-24T21:39:19.213Z,14.00
2018-08-24T21:41:47.708Z,13.83
2018-08-24T21:44:15.918Z,13.67
2018-08-24T21:46:44.145Z,15.17
2018-08-24T21:49:12.365Z,13.30
2018-08-24T21:51:40.613Z,14.47
2018-08-24T21:54:08.864Z,14.53
2018-08-24T21:56:37.061Z,13.83
2018-08-24T21:59:05.353Z,14.30
2018-08-24T22:01:33.553Z,15.23
2018-08-24T22:04:01.901Z,14.20
2018-08-24T22:06:30.145Z,13.97
2018-08-24T22:08:58.373Z,15.20
2018-08-24T22:11:26.591Z,15.50
2018-08-24T22:13:54.801Z,13.83
2018-08-24T22:16:23.074Z,14.80
2018-08-24T22:18:51.323Z,14.20
2018-08-24T22:21:19.525Z,14.07
2018-08-24T22:23:47.789Z,14.80
2018-08-24T22:26:16.074Z,14.33
2018-08-24T22:28:44.321Z,13.13
2018-08-24T22:31:12.602Z,14.43
2018-08-24T22:33:40.822Z,15.13
2018-08-24T22:36:09.049Z,14.63
2018-08-24T22:38:37.352Z,14.37
2018-08-24T22:41:06.130Z,15.60
2018-08-24T22:43:35.804Z,14.60
2018-08-24T22:46:04.553Z,15.00
2018-08-24T22:48:33.249Z,15.97
2018-08-24T22:51:01.585Z,15.87
2018-08-24T22:53:29.793Z,13.80
2018-08-24T22:55:57.973Z,15.00
2018-08-24T22:58:26.198Z,15.67
2018-08-24T23:00:54.385Z,14.87
2018-08-24T23:03:22.629Z,16.10
2018-08-24T23:05:50.861Z,15.60
2018-08-24T23:08:19.105Z,16.07
2018-08-24T23:10:47.493Z,16.90
2018-08-24T23:13:15.717Z,15.90
2018-08-24T23:15:43.921Z,15.60
2018-08-24T23:18:12.105Z,14.97
2018-08-24T23:20:40.329Z,15.97
2018-08-24T23:23:08.553Z,14.47
2018-08-24T23:25:36.757Z,14.47
2018-08-24T23:28:05.151Z,15.83
2018-08-24T23:30:33.350Z,15.67
2018-08-24T23:33:01.558Z,14.80
2018-08-24T23:35:29.828Z,15.90
2018-08-24T23:37:58.105Z,15.43
2018-08-24T23:40:26.317Z,14.70
2018-08-24T23:42:54.554Z,14.87
2018-08-24T23:45:22.753Z,14.17
2018-08-24T23:47:50.965Z,13.90
2018-08-24T23:50:19.190Z,14.80
2018-08-24T23:52:47.481Z,14.73
2018-08-24T23:55:15.717Z,15.47
2018-08-24T23:57:43.949Z,13.90
